createdAt,value
2019-05-21T00:02:13.977Z,20.88
2019-05-21T00:05:17.562Z,19.32
2019-05-21T00:08:22.760Z,19.80
2019-05-21T00:11:27.973Z,20.00
2019-05-21T00:14:33.433Z,19.70
2019-05-21T00:17:37.005Z,20.95
2019-05-21T00:20:46.315Z,21.50
2019-05-21T00:23:48.926Z,19.87
2019-05-21T00:26:52.546Z,20.12
2019-05-21T00:30:34.271Z,19.87
2019-05-21T00:34:14.022Z,19.52
2019-05-21T00:37:57.014Z,20.60
2019-05-21T00:44:23.209Z,20.65
2019-05-21T00:47:26.753Z,20.40
2019-05-21T00:50:30.345Z,21.37
2019-05-21T00:53:33.952Z,21.17
2019-05-21T00:56:37.556Z,21.55
2019-05-21T00:59:41.163Z,21.55
2019-05-21T01:02:44.776Z,20.55
2019-05-21T01:05:49.883Z,19.87
2019-05-21T01:08:53.432Z,20.75
2019-05-21T01:11:57.038Z,22.17
2019-05-21T01:15:00.625Z,21.80
2019-05-21T01:18:04.165Z,22.32
2019-05-21T01:21:07.856Z,21.27
2019-05-21T01:24:11.623Z,21.93
2019-05-21T01:27:15.323Z,23.85
2019-05-21T01:30:19.164Z,23.62
2019-05-21T01:33:22.856Z,26.07
2019-05-21T01:36:29.216Z,25.62
2019-05-21T01:39:32.806Z,26.17
2019-05-21T01:42:36.329Z,28.83
2019-05-21T01:45:40.098Z,29.20
2019-05-21T01:48:45.176Z,28.25
2019-05-21T01:51:48.741Z,28.90
2019-05-21T01:54:52.304Z,28.02
2019-05-21T01:57:57.476Z,30.48
2019-05-21T02:01:01.032Z,31.48
2019-05-21T02:04:04.924Z,28.73
2019-05-21T02:07:10.102Z,29.52
2019-05-21T02:10:14.092Z,31.10
2019-05-21T02:13:19.379Z,32.15
2019-05-21T02:16:22.984Z,30.88
2019-05-21T02:19:26.638Z,31.52
2019-05-21T02:22:30.290Z,30.70
2019-05-21T02:25:35.361Z,31.55
2019-05-21T02:28:39.059Z,32.17
2019-05-21T02:31:42.642Z,31.50
2019-05-21T02:34:46.265Z,32.70
2019-05-21T02:37:49.827Z,31.52
2019-05-21T02:40:55.889Z,31.20
2019-05-21T02:43:59.479Z,31.80
2019-05-21T02:47:04.719Z,32.78
2019-05-21T02:50:08.807Z,32.10
2019-05-21T02:53:12.371Z,32.67
2019-05-21T02:56:15.939Z,31.60
2019-05-21T02:59:19.581Z,29.42
2019-05-21T03:02:38.251Z,31.60
2019-05-21T03:05:41.839Z,30.65
2019-05-21T03:08:45.410Z,30.55
2019-05-21T03:11:49.022Z,30.23
2019-05-21T03:14:52.610Z,30.32
2019-05-21T03:17:56.176Z,28.83
2019-05-21T03:20:59.794Z,29.52
2019-05-21T03:24:03.578Z,28.50
2019-05-21T03:27:07.185Z,28.30
2019-05-21T03:30:12.752Z,28.47
2019-05-21T03:33:17.949Z,28.47
2019-05-21T03:36:33.498Z,27.55
2019-05-21T03:39:32.704Z,27.65
2019-05-21T03:42:36.214Z,26.57
2019-05-21T03:45:40.367Z,26.40
2019-05-21T03:48:46.195Z,25.37
2019-05-21T03:51:49.750Z,26.23
2019-05-21T03:54:54.923Z,23.42
2019-05-21T03:57:58.470Z,24.60
2019-05-21T04:01:02.135Z,24.40
2019-05-21T04:04:05.785Z,25.52
2019-05-21T04:07:09.417Z,26.60
2019-05-21T04:10:17.203Z,25.65
2019-05-21T04:13:20.754Z,25.65
2019-05-21T04:16:28.656Z,25.35
2019-05-21T04:19:33.909Z,27.13
2019-05-21T04:22:42.063Z,25.95
2019-05-21T04:25:45.691Z,26.07
2019-05-21T04:28:49.272Z,26.75
2019-05-21T04:31:52.843Z,25.90
2019-05-21T04:34:58.153Z,24.75
2019-05-21T04:38:04.518Z,24.85
2019-05-21T04:41:09.111Z,24.30
2019-05-21T04:44:12.677Z,22.77
2019-05-21T04:47:16.246Z,24.82
2019-05-21T04:50:19.787Z,22.70
2019-05-21T04:53:23.383Z,22.65
2019-05-21T04:56:27.051Z,19.92
2019-05-21T04:59:30.751Z,21.95
2019-05-21T05:02:34.405Z,20.82
2019-05-21T05:05:38.160Z,22.13
2019-05-21T05:08:41.847Z,21.30
2019-05-21T05:11:45.501Z,19.98
2019-05-21T05:14:49.157Z,19.65
2019-05-21T05:17:52.821Z,19.67
2019-05-21T05:20:56.458Z,17.52
2019-05-21T05:24:00.115Z,17.90
2019-05-21T05:27:03.766Z,18.75
2019-05-21T05:30:08.164Z,18.00
2019-05-21T05:33:11.789Z,17.92
2019-05-21T05:36:15.631Z,16.95
2019-05-21T05:39:19.239Z,15.00
2019-05-21T05:42:23.023Z,15.65
2019-05-21T05:45:26.775Z,16.85
2019-05-21T05:48:32.299Z,17.00
2019-05-21T05:51:35.965Z,16.42
2019-05-21T05:54:39.670Z,16.32
2019-05-21T05:57:43.422Z,15.48
2019-05-21T06:00:47.087Z,15.20
2019-05-21T06:03:50.929Z,14.95
2019-05-21T06:06:54.546Z,15.08
2019-05-21T06:09:58.214Z,14.95
2019-05-21T06:13:01.935Z,15.10
2019-05-21T06:16:05.752Z,14.50
2019-05-21T06:19:09.369Z,14.15
2019-05-21T06:22:13.224Z,13.83
2019-05-21T06:25:18.590Z,14.07
2019-05-21T06:28:22.336Z,14.60
2019-05-21T06:31:25.969Z,14.23
2019-05-21T06:34:29.614Z,13.15
2019-05-21T06:37:33.242Z,13.80
2019-05-21T06:40:38.553Z,13.95
2019-05-21T06:43:42.284Z,14.15
2019-05-21T06:46:46.013Z,13.35
2019-05-21T06:49:49.630Z,13.65
2019-05-21T06:52:53.310Z,13.25
2019-05-21T06:55:56.925Z,13.62
2019-05-21T06:59:00.617Z,13.70
2019-05-21T07:02:04.515Z,13.78
2019-05-21T07:05:08.514Z,12.75
2019-05-21T07:08:12.159Z,12.55
2019-05-21T07:11:15.819Z,12.18
2019-05-21T07:14:19.490Z,12.58
2019-05-21T07:17:23.182Z,11.50
2019-05-21T07:20:26.999Z,12.07
2019-05-21T07:23:30.609Z,12.13
2019-05-21T07:26:34.405Z,12.63
2019-05-21T07:29:38.051Z,12.28
2019-05-21T07:32:41.708Z,11.35
2019-05-21T07:35:45.365Z,10.80
2019-05-21T07:38:54.051Z,10.08
2019-05-21T07:41:54.411Z,9.48
2019-05-21T07:44:58.017Z,9.28
2019-05-21T07:48:01.772Z,9.30
2019-05-21T07:51:05.414Z,10.05
2019-05-21T07:54:09.070Z,9.33
2019-05-21T07:57:12.691Z,9.65
2019-05-21T08:00:18.280Z,9.33
2019-05-21T08:03:21.960Z,9.20
2019-05-21T08:06:25.619Z,7.85
2019-05-21T08:09:29.271Z,8.33
2019-05-21T08:12:39.123Z,8.78
2019-05-21T08:15:38.451Z,9.88
2019-05-21T08:18:42.135Z,8.38
2019-05-21T08:21:45.858Z,8.05
2019-05-21T08:24:49.449Z,7.78
2019-05-21T08:27:53.207Z,8.43
2019-05-21T08:30:56.799Z,8.13
2019-05-21T08:34:00.476Z,9.50
2019-05-21T08:37:04.589Z,8.65
2019-05-21T08:40:09.098Z,7.90
2019-05-21T08:43:12.823Z,7.80
2019-05-21T08:46:16.463Z,7.85
2019-05-21T08:49:20.140Z,7.72
2019-05-21T08:52:23.817Z,7.62
2019-05-21T08:55:27.474Z,7.60
2019-05-21T08:58:31.079Z,7.10
2019-05-21T09:01:34.797Z,7.05
2019-05-21T09:04:46.148Z,9.45
2019-05-21T09:07:43.921Z,8.40
2019-05-21T09:10:47.552Z,8.38
2019-05-21T09:13:52.232Z,10.18
2019-05-21T09:16:55.872Z,9.63
2019-05-21T09:20:00.584Z,8.25
2019-05-21T09:23:04.173Z,8.60
2019-05-21T09:26:07.802Z,8.50
2019-05-21T09:29:11.594Z,8.13
2019-05-21T09:32:15.240Z,5.80
2019-05-21T09:35:19.031Z,5.47
2019-05-21T09:38:22.720Z,4.60
2019-05-21T09:41:26.455Z,3.92
2019-05-21T09:44:30.174Z,3.98
2019-05-21T09:47:33.819Z,4.17
2019-05-21T09:50:37.493Z,4.05
2019-05-21T09:53:41.394Z,4.37
2019-05-21T09:56:45.006Z,4.12
2019-05-21T09:59:53.044Z,3.83
2019-05-21T10:02:56.683Z,4.20
2019-05-21T10:06:00.703Z,3.70
2019-05-21T10:09:08.264Z,2.90
2019-05-21T10:12:11.974Z,3.00
2019-05-21T10:15:15.589Z,2.98
2019-05-21T10:18:19.257Z,3.35
2019-05-21T10:21:22.908Z,3.62
2019-05-21T10:24:26.553Z,3.45
2019-05-21T10:27:30.194Z,3.30
2019-05-21T10:30:34.054Z,3.10
2019-05-21T10:33:37.679Z,3.40
2019-05-21T10:36:41.397Z,3.60
2019-05-21T10:39:45.013Z,4.62
2019-05-21T10:42:48.692Z,38.60
2019-05-21T10:45:52.377Z,4.95
2019-05-21T10:48:56.024Z,4.17
2019-05-21T10:51:59.714Z,4.70
2019-05-21T10:55:04.322Z,4.67
2019-05-21T10:58:07.962Z,3.77
2019-05-21T11:01:21.980Z,3.52
2019-05-21T11:04:32.962Z,4.40
2019-05-21T11:07:36.613Z,2.98
2019-05-21T11:10:41.750Z,3.58
2019-05-21T11:13:45.540Z,6.70
2019-05-21T11:16:49.253Z,3.65
2019-05-21T11:19:52.893Z,2.75
2019-05-21T11:22:58.407Z,2.40
2019-05-21T11:26:02.035Z,2.40
2019-05-21T11:29:05.854Z,2.20
2019-05-21T11:32:09.526Z,2.47
2019-05-21T11:35:13.577Z,2.33
2019-05-21T11:38:17.234Z,2.55
2019-05-21T11:41:20.918Z,2.55
2019-05-21T11:44:24.563Z,2.27
2019-05-21T11:47:28.242Z,2.42
2019-05-21T11:50:32.038Z,2.30
2019-05-21T11:53:35.645Z,2.10
2019-05-21T11:56:39.367Z,2.00
2019-05-21T11:59:42.996Z,2.47
2019-05-21T12:02:46.869Z,2.20
2019-05-21T12:05:50.935Z,2.40
2019-05-21T12:08:57.062Z,1.87
2019-05-21T12:11:59.965Z,1.82
2019-05-21T12:15:08.649Z,2.10
2019-05-21T12:18:12.284Z,2.22
2019-05-21T12:21:15.972Z,2.10
2019-05-21T12:24:19.638Z,2.08
2019-05-21T12:27:23.268Z,1.60
2019-05-21T12:30:26.869Z,1.40
2019-05-21T12:33:34.699Z,1.40
2019-05-21T12:36:36.059Z,1.50
2019-05-21T12:39:39.700Z,1.30
2019-05-21T12:42:43.314Z,1.75
2019-05-21T12:45:47.023Z,1.40
2019-05-21T12:48:50.777Z,1.50
2019-05-21T12:51:54.437Z,1.40
2019-05-21T12:54:58.101Z,1.60
2019-05-21T12:58:01.752Z,1.70
2019-05-21T13:01:05.640Z,1.67
2019-05-21T13:04:09.286Z,1.80
2019-05-21T13:07:12.917Z,2.35
2019-05-21T13:10:16.847Z,3.33
2019-05-21T13:13:20.454Z,3.50
2019-05-21T13:16:24.128Z,3.70
2019-05-21T13:19:27.730Z,3.58
2019-05-21T13:22:31.696Z,3.92
2019-05-21T13:25:36.276Z,3.30
2019-05-21T13:28:39.911Z,3.77
2019-05-21T13:31:43.556Z,3.20
2019-05-21T13:34:47.288Z,3.30
2019-05-21T13:37:50.965Z,3.15
2019-05-21T13:40:54.885Z,2.85
2019-05-21T13:43:58.493Z,3.17
2019-05-21T13:47:02.191Z,2.98
2019-05-21T13:50:07.867Z,3.33
2019-05-21T13:53:11.581Z,3.52
2019-05-21T13:56:15.295Z,3.27
2019-05-21T13:59:19.453Z,4.05
2019-05-21T14:02:24.674Z,3.00
2019-05-21T14:05:28.773Z,3.30
2019-05-21T14:08:32.384Z,3.40
2019-05-21T14:11:36.279Z,3.67
2019-05-21T14:14:40.037Z,3.27
2019-05-21T14:17:43.764Z,3.40
2019-05-21T14:20:49.272Z,3.65
2019-05-21T14:23:52.955Z,3.67
2019-05-21T14:26:56.560Z,3.27
2019-05-21T14:30:00.954Z,3.95
2019-05-21T14:33:04.641Z,4.35
2019-05-21T14:36:08.492Z,4.47
2019-05-21T14:39:13.734Z,4.33
2019-05-21T14:42:20.467Z,4.10
2019-05-21T14:45:28.282Z,4.03
2019-05-21T14:48:29.554Z,3.62
2019-05-21T14:51:33.201Z,3.85
2019-05-21T14:54:36.862Z,3.67
2019-05-21T14:57:40.492Z,3.60
2019-05-21T15:00:44.235Z,4.62
2019-05-21T15:03:47.919Z,4.62
2019-05-21T15:06:51.576Z,4.95
2019-05-21T15:09:55.177Z,5.12
2019-05-21T15:12:58.824Z,5.83
2019-05-21T15:16:02.491Z,6.08
2019-05-21T15:19:06.239Z,5.92
2019-05-21T15:22:09.991Z,9.43
2019-05-21T15:25:13.781Z,5.30
2019-05-21T15:28:17.511Z,5.60
2019-05-21T15:31:21.223Z,5.80
2019-05-21T15:34:24.908Z,5.35
2019-05-21T15:37:28.508Z,5.03
2019-05-21T15:40:32.307Z,5.30
2019-05-21T15:43:35.966Z,5.05
2019-05-21T15:46:48.984Z,5.17
2019-05-21T15:49:44.946Z,4.33
2019-05-21T15:52:48.607Z,4.95
2019-05-21T15:55:52.204Z,5.30
2019-05-21T15:58:55.924Z,5.30
2019-05-21T16:01:59.584Z,5.97
2019-05-21T16:05:03.682Z,5.20
2019-05-21T16:08:07.339Z,5.75
2019-05-21T16:11:27.386Z,5.10
2019-05-21T16:14:16.339Z,4.87
2019-05-21T16:17:19.972Z,4.95
2019-05-21T16:20:23.916Z,5.00
2019-05-21T16:23:27.526Z,7.33
2019-05-21T16:26:31.270Z,8.83
2019-05-21T16:29:34.896Z,8.13
2019-05-21T16:32:38.638Z,9.40
2019-05-21T16:35:42.303Z,11.68
2019-05-21T16:38:46.038Z,11.97
2019-05-21T16:41:49.657Z,11.88
2019-05-21T16:44:56.642Z,12.95
2019-05-21T16:48:00.281Z,11.60
2019-05-21T16:51:04.386Z,12.30
2019-05-21T16:54:08.023Z,11.83
2019-05-21T16:57:11.695Z,12.18
2019-05-21T17:00:17.239Z,12.45
2019-05-21T17:03:20.903Z,14.07
2019-05-21T17:06:24.771Z,14.30
2019-05-21T17:09:29.257Z,15.78
2019-05-21T17:12:32.951Z,15.80
2019-05-21T17:15:36.597Z,15.85
2019-05-21T17:18:40.297Z,15.28
2019-05-21T17:21:44.109Z,15.48
2019-05-21T17:24:47.790Z,14.70
2019-05-21T17:27:51.553Z,14.03
2019-05-21T17:30:55.160Z,13.13
2019-05-21T17:33:58.841Z,13.55
2019-05-21T17:37:02.557Z,11.75
2019-05-21T17:40:07.596Z,12.28
2019-05-21T17:43:11.225Z,12.75
2019-05-21T17:46:14.881Z,12.03
2019-05-21T17:49:20.236Z,12.03
2019-05-21T17:52:23.935Z,11.57
2019-05-21T17:55:27.899Z,11.03
2019-05-21T17:58:31.736Z,10.85
2019-05-21T18:01:35.442Z,11.08
2019-05-21T18:04:39.462Z,11.35
2019-05-21T18:07:43.255Z,11.65
2019-05-21T18:10:47.450Z,13.18
2019-05-21T18:13:51.379Z,14.28
2019-05-21T18:16:55.001Z,13.45
2019-05-21T18:19:59.754Z,15.28
2019-05-21T18:23:03.833Z,13.88
2019-05-21T18:26:08.030Z,13.90
2019-05-21T18:29:11.933Z,13.40
2019-05-21T18:32:15.688Z,13.48
2019-05-21T18:35:19.415Z,13.13
2019-05-21T18:38:23.297Z,14.40
2019-05-21T18:41:27.097Z,14.95
2019-05-21T18:44:30.754Z,16.30
2019-05-21T18:47:35.448Z,17.27
2019-05-21T18:50:39.068Z,17.37
2019-05-21T18:53:42.743Z,18.57
2019-05-21T18:56:46.547Z,19.10
2019-05-21T18:59:50.216Z,20.82
2019-05-21T19:02:53.914Z,22.95
2019-05-21T19:05:57.527Z,24.98
2019-05-21T19:09:01.282Z,25.27
2019-05-21T19:12:04.981Z,26.40
2019-05-21T19:15:09.555Z,23.05
2019-05-21T19:18:13.183Z,21.70
2019-05-21T19:21:16.875Z,19.42
2019-05-21T19:24:20.494Z,19.15
2019-05-21T19:27:25.443Z,22.42
2019-05-21T19:30:29.599Z,21.42
2019-05-21T19:33:33.287Z,22.13
2019-05-21T19:36:36.994Z,18.23
2019-05-21T19:39:40.750Z,18.65
2019-05-21T19:42:54.267Z,17.75
2019-05-21T19:45:49.842Z,16.90
2019-05-21T19:48:53.496Z,17.90
2019-05-21T19:51:57.140Z,19.35
2019-05-21T19:55:00.773Z,20.62
2019-05-21T19:58:04.804Z,22.80
2019-05-21T20:01:09.422Z,23.18
2019-05-21T20:04:14.016Z,24.25
2019-05-21T20:07:19.285Z,23.38
2019-05-21T20:10:23.506Z,22.48
2019-05-21T20:13:32.459Z,20.35
2019-05-21T20:16:33.085Z,20.72
2019-05-21T20:19:36.805Z,21.27
2019-05-21T20:22:42.369Z,21.75
2019-05-21T20:25:56.111Z,22.65
2019-05-21T20:28:51.428Z,22.42
2019-05-21T20:31:55.317Z,21.68
2019-05-21T20:34:59.047Z,21.17
2019-05-21T20:38:03.738Z,18.45
2019-05-21T20:41:07.513Z,18.07
2019-05-21T20:44:12.747Z,17.30
2019-05-21T20:47:18.145Z,16.37
2019-05-21T20:50:23.190Z,15.25
2019-05-21T20:53:27.025Z,15.30
2019-05-21T20:56:31.582Z,14.15
2019-05-21T20:59:35.430Z,14.78
2019-05-21T21:02:40.672Z,15.35
2019-05-21T21:05:44.917Z,14.25
2019-05-21T21:08:49.053Z,14.68
2019-05-21T21:11:52.688Z,15.68
2019-05-21T21:14:56.628Z,16.15
2019-05-21T21:18:00.835Z,14.70
2019-05-21T21:21:04.628Z,16.25
2019-05-21T21:24:08.751Z,15.93
2019-05-21T21:27:12.812Z,16.62
2019-05-21T21:30:16.505Z,16.62
2019-05-21T21:33:20.338Z,20.15
2019-05-21T21:36:24.570Z,21.40
2019-05-21T21:39:28.365Z,24.65
2019-05-21T21:42:32.397Z,24.55
2019-05-21T21:45:36.811Z,25.08
2019-05-21T21:48:40.704Z,26.80
2019-05-21T21:51:44.356Z,26.80
2019-05-21T21:54:48.151Z,26.27
2019-05-21T21:57:51.936Z,28.62
2019-05-21T22:01:02.768Z,28.50
2019-05-21T22:04:08.516Z,28.10
2019-05-21T22:07:15.601Z,28.92
2019-05-21T22:10:20.479Z,30.72
2019-05-21T22:13:24.886Z,31.40
2019-05-21T22:16:29.297Z,31.97
2019-05-21T22:19:37.645Z,31.95
2019-05-21T22:22:41.812Z,30.92
2019-05-21T22:25:45.694Z,31.55
2019-05-21T22:28:49.288Z,30.57
2019-05-21T22:31:53.014Z,32.17
2019-05-21T22:34:56.632Z,29.82
2019-05-21T22:38:00.413Z,30.57
2019-05-21T22:41:04.452Z,31.00
2019-05-21T22:44:08.104Z,29.07
2019-05-21T22:47:12.294Z,28.50
2019-05-21T22:50:17.081Z,26.82
2019-05-21T22:53:20.641Z,26.17
2019-05-21T22:56:24.195Z,23.98
2019-05-21T22:59:27.751Z,22.45
2019-05-21T23:02:33.433Z,21.55
2019-05-21T23:05:37.099Z,22.20
2019-05-21T23:08:40.666Z,21.05
2019-05-21T23:11:44.402Z,20.27
2019-05-21T23:14:48.698Z,21.57
2019-05-21T23:17:52.906Z,22.00
2019-05-21T23:20:57.150Z,22.62
2019-05-21T23:24:01.737Z,22.05
2019-05-21T23:27:08.775Z,23.12
2019-05-21T23:30:15.570Z,23.12
2019-05-21T23:33:20.215Z,22.55
2019-05-21T23:36:24.046Z,22.15
2019-05-21T23:39:28.202Z,22.13
2019-05-21T23:42:32.536Z,22.90
2019-05-21T23:45:36.340Z,21.97
2019-05-21T23:48:41.175Z,21.40
2019-05-21T23:51:45.529Z,21.82
2019-05-21T23:54:49.331Z,19.40
2019-05-21T23:57:52.900Z,19.70
